Time;durP1;ratioP1;P1;durP2;ratioP2;P2;SDS_P1;SDS_P2;PMS_P1;PMS_P2;Temp;Humidity;BMP_temperature;BMP_pressure;BME280_temperature;BME280_humidity;BME280_pressure;Samples;Min_cycle;Max_cycle;Signal;HPM_P1;HPM_P2
2021/09/17 00:00:07;;;;;;;;;17.00;14.25;;;;;18.88;61.13;101504.78;4922792;28;46235;-83
2021/09/17 00:03:25;;;;;;;;;17.50;15.50;;;;;18.87;60.94;101499.47;4928425;28;45888;-83
2021/09/17 00:06:06;;;;;;;;;;;;;;;;;;;;;
2021/09/17 00:09:06;;;;;;;;;;;;;;;;;;;;;
2021/09/17 00:11:43;;;;;;;;;12.50;11.75;;;;;18.71;61.28;101483.84;4923795;28;75107;-84
2021/09/17 00:18:01;;;;;;;;;;;;;;;;;;;;;
2021/09/17 00:20:37;;;;;;;;;11.50;11.50;;;;;18.67;60.90;101476.81;4924574;28;72653;-83
2021/09/17 00:23:41;;;;;;;;;;;;;;;;;;;;;
2021/09/17 00:26:21;;;;;;;;;13.75;11.75;;;;;18.58;60.96;101468.16;4924043;28;74079;-83
2021/09/17 00:28:54;;;;;;;;;12.50;12.50;;;;;18.54;61.08;101458.50;4925435;28;45475;-82
2021/09/17 00:31:35;;;;;;;;;;;;;;;;;;;;;
2021/09/17 00:34:29;;;;;;;;;;;;;;;;;;;;;
2021/09/17 00:37:22;;;;;;;;;15.50;15.50;;;;;18.55;61.07;101477.16;4924307;28;72009;-83
2021/09/17 00:46:50;;;;;;;;;12.75;12.50;;;;;18.37;61.48;101456.28;4907482;28;45439;-82
2021/09/17 00:50:08;;;;;;;;;17.00;15.25;;;;;18.37;61.78;101461.59;4913741;28;45315;-82
2021/09/17 00:53:04;;;;;;;;;12.50;12.00;;;;;18.28;62.21;101454.69;4918401;28;45184;-82
2021/09/17 00:55:55;;;;;;;;;;;;;;;;;;;;;
2021/09/17 00:58:38;;;;;;;;;16.75;14.75;;;;;18.25;61.92;101463.63;4947910;28;75702;-82
2021/09/17 01:01:39;;;;;;;;;;;;;;;;;;;;;
2021/09/17 01:04:43;;;;;;;;;13.50;13.50;;;;;18.30;62.52;101467.06;4914360;28;67587;-83
2021/09/17 01:08:15;;;;;;;;;15.75;14.00;;;;;18.29;62.43;101468.00;4913556;28;45766;-82
2021/09/17 01:10:42;;;;;;;;;;;;;;;;;;;;;
2021/09/17 01:17:42;;;;;;;;;15.00;11.00;;;;;18.17;62.50;101441.63;4925057;28;46467;-83
2021/09/17 01:19:54;;;;;;;;;12.75;12.75;;;;;18.11;62.47;101433.78;4912118;28;45270;-82
2021/09/17 01:26:18;;;;;;;;;;;;;;;;;;;;;
2021/09/17 01:29:33;;;;;;;;;;;;;;;;;;;;;
2021/09/17 01:32:34;;;;;;;;;14.25;14.25;;;;;18.08;62.79;101429.41;4905247;28;72805;-83
2021/09/17 01:35:54;;;;;;;;;;;;;;;;;;;;;
2021/09/17 01:39:01;;;;;;;;;14.50;14.50;;;;;18.04;62.72;101426.84;4917331;28;71551;-83
2021/09/17 01:42:04;;;;;;;;;;;;;;;;;;;;;
2021/09/17 01:48:24;;;;;;;;;17.50;14.25;;;;;17.96;62.80;101427.03;4914326;28;46827;-83
2021/09/17 01:55:02;;;;;;;;;;;;;;;;;;;;;
2021/09/17 01:58:02;;;;;;;;;15.25;15.25;;;;;17.82;63.22;101406.03;4909625;28;72711;-83
2021/09/17 02:01:20;;;;;;;;;;;;;;;;;;;;;
2021/09/17 02:04:01;;;;;;;;;;;;;;;;;;;;;
2021/09/17 02:07:02;;;;;;;;;;;;;;;;;;;;;
2021/09/17 02:10:19;;;;;;;;;;;;;;;;;;;;;
2021/09/17 02:13:23;;;;;;;;;;;;;;;;;;;;;
2021/09/17 02:16:32;;;;;;;;;16.00;15.50;;;;;17.70;63.75;101389.44;4919181;28;71326;-82
2021/09/17 02:23:04;;;;;;;;;;;;;;;;;;;;;
2021/09/17 02:28:09;;;;;;;;;;;;;;;;;;;;;
2021/09/17 02:34:54;;;;;;;;;;;;;;;;;;;;;
2021/09/17 02:40:33;;;;;;;;;17.25;16.00;;;;;17.64;64.25;101393.09;4919209;28;45502;-83
2021/09/17 02:43:27;;;;;;;;;17.50;17.50;;;;;17.57;64.48;101386.19;4914099;28;45426;-82
2021/09/17 02:46:28;;;;;;;;;;;;;;;;;;;;;
2021/09/17 02:49:23;;;;;;;;;18.25;17.00;;;;;17.48;64.36;101362.41;4906042;28;73780;-82
2021/09/17 02:52:45;;;;;;;;;;;;;;;;;;;;;
2021/09/17 02:55:39;;;;;;;;;15.00;14.25;;;;;17.54;64.65;101387.13;4922052;28;68669;-82
2021/09/17 02:58:32;;;;;;;;;15.25;14.25;;;;;17.51;64.55;101384.53;4922843;28;45425;-82
2021/09/17 03:01:51;;;;;;;;;;;;;;;;;;;;;
2021/09/17 03:04:54;;;;;;;;;;;;;;;;;;;;;
2021/09/17 03:08:15;;;;;;;;;;;;;;;;;;;;;
2021/09/17 03:11:11;;;;;;;;;;;;;;;;;;;;;
2021/09/17 03:17:10;;;;;;;;;;;;;;;;;;;;;
2021/09/17 03:20:32;;;;;;;;;;;;;;;;;;;;;
2021/09/17 03:23:29;;;;;;;;;;;;;;;;;;;;;
2021/09/17 03:30:09;;;;;;;;;;;;;;;;;;;;;
2021/09/17 03:33:27;;;;;;;;;16.00;12.00;;;;;17.24;65.71;101343.44;4917772;28;67400;-82
2021/09/17 03:39:55;;;;;;;;;;;;;;;;;;;;;
2021/09/17 03:42:55;;;;;;;;;;;;;;;;;;;;;
2021/09/17 03:45:53;;;;;;;;;;;;;;;;;;;;;
2021/09/17 03:48:38;;;;;;;;;16.25;14.75;;;;;17.18;65.90;101343.53;4920912;28;72952;-83
2021/09/17 03:51:41;;;;;;;;;;;;;;;;;;;;;
2021/09/17 03:55:00;;;;;;;;;;;;;;;;;;;;;
2021/09/17 03:57:56;;;;;;;;;;;;;;;;;;;;;
2021/09/17 04:00:43;;;;;;;;;19.25;18.00;;;;;17.08;65.71;101336.66;4921467;28;73112;-83
2021/09/17 04:04:06;;;;;;;;;20.00;18.25;;;;;17.05;65.84;101334.94;4921699;28;45683;-83
2021/09/17 04:07:00;;;;;;;;;23.75;19.50;;;;;17.13;65.77;101351.66;4919141;28;45220;-83
2021/09/17 04:10:11;;;;;;;;;;;;;;;;;;;;;
2021/09/17 04:12:52;;;;;;;;;;;;;;;;;;;;;
2021/09/17 04:15:23;;;;;;;;;18.25;15.25;;;;;16.98;65.75;101325.34;4921065;28;74385;-83
2021/09/17 04:21:11;;;;;;;;;;;;;;;;;;;;;
2021/09/17 04:24:15;;;;;;;;;;;;;;;;;;;;;
2021/09/17 04:27:05;;;;;;;;;20.00;17.75;;;;;17.01;65.57;101337.72;4920544;28;75516;-82
2021/09/17 04:30:27;;;;;;;;;;;;;;;;;;;;;
2021/09/17 04:33:41;;;;;;;;;16.75;15.25;;;;;17.03;65.36;101341.22;4921089;28;67523;-83
2021/09/17 04:36:58;;;;;;;;;;;;;;;;;;;;;
2021/09/17 04:40:03;;;;;;;;;;;;;;;;;;;;;
2021/09/17 04:43:26;;;;;;;;;;;;;;;;;;;;;
2021/09/17 04:46:52;;;;;;;;;14.25;14.00;;;;;16.98;65.65;101342.19;4914447;28;67232;-82
2021/09/17 04:49:58;;;;;;;;;18.75;14.00;;;;;17.00;65.55;101343.91;4917206;28;45585;-83
2021/09/17 04:52:53;;;;;;;;;;;;;;;;;;;;;
2021/09/17 04:56:06;;;;;;;;;;;;;;;;;;;;;
2021/09/17 04:59:12;;;;;;;;;;;;;;;;;;;;;
2021/09/17 05:04:48;;;;;;;;;21.33;18.33;;;;;16.95;65.71;101347.56;4918090;28;46989;-83
2021/09/17 05:07:41;;;;;;;;;18.75;18.75;;;;;16.93;66.16;101337.88;4923832;28;45272;-82
2021/09/17 05:16:46;;;;;;;;;;;;;;;;;;;;;
2021/09/17 05:20:10;;;;;;;;;;;;;;;;;;;;;
2021/09/17 05:23:11;;;;;;;;;;;;;;;;;;;;;
2021/09/17 05:26:36;;;;;;;;;;;;;;;;;;;;;
2021/09/17 05:29:38;;;;;;;;;;;;;;;;;;;;;
2021/09/17 05:32:34;;;;;;;;;16.75;15.50;;;;;16.95;65.32;101339.59;4922994;28;72794;-82
2021/09/17 05:35:29;;;;;;;;;;;;;;;;;;;;;
2021/09/17 05:38:36;;;;;;;;;;;;;;;;;;;;;
2021/09/17 05:41:36;;;;;;;;;;;;;;;;;;;;;
2021/09/17 05:44:37;;;;;;;;;;;;;;;;;;;;;
2021/09/17 05:47:22;;;;;;;;;21.25;19.75;;;;;16.93;65.50;101330.75;4922869;28;67243;-82
2021/09/17 05:50:00;;;;;;;;;21.25;21.00;;;;;16.80;65.29;101309.78;4911332;28;45244;-82
2021/09/17 05:52:47;;;;;;;;;;;;;;;;;;;;;
2021/09/17 05:55:28;;;;;;;;;;;;;;;;;;;;;
2021/09/17 05:58:16;;;;;;;;;23.00;23.00;;;;;16.83;65.64;101315.91;4922677;28;68779;-83
2021/09/17 06:04:56;;;;;;;;;19.75;19.75;;;;;16.96;65.97;101343.13;4898124;28;45680;-85
2021/09/17 06:11:22;;;;;;;;;20.75;20.75;;;;;16.90;66.13;101317.53;4916212;28;45254;-87
2021/09/17 06:33:25;;;;;;;;;;;;;;;;;;;;;
2021/09/17 06:36:32;;;;;;;;;25.25;23.00;;;;;17.12;66.13;101306.44;4799685;29;71876;-87
2021/09/17 06:39:23;;;;;;;;;;;;;;;;;;;;;
2021/09/17 06:42:14;;;;;;;;;;;;;;;;;;;;;
2021/09/17 06:45:31;;;;;;;;;29.75;24.75;;;;;17.26;65.89;101309.66;4924423;28;74224;-88
2021/09/17 06:48:49;;;;;;;;;;;;;;;;;;;;;
2021/09/17 06:51:07;;;;;;;;;22.50;20.75;;;;;17.29;65.93;101298.94;4860799;29;45477;-83
2021/09/17 06:53:34;;;;;;;;;24.75;22.25;;;;;17.36;65.65;101307.66;4862276;29;45548;-83
2021/09/17 06:56:00;;;;;;;;;21.00;20.00;;;;;17.42;65.57;101315.50;4845633;29;46813;-81
2021/09/17 06:58:29;;;;;;;;;28.50;27.25;;;;;17.42;65.96;101304.84;4876977;28;45532;-84
2021/09/17 07:00:57;;;;;;;;;26.00;24.25;;;;;17.35;65.70;101288.16;4922262;28;45726;-83
2021/09/17 07:03:23;;;;;;;;;26.50;23.00;;;;;17.47;65.86;101313.63;4923343;28;45559;-83
2021/09/17 07:08:52;;;;;;;;;29.25;26.00;;;;;17.51;65.59;101296.69;4901476;28;45601;-83
2021/09/17 07:14:49;;;;;;;;;24.75;23.50;;;;;17.62;66.03;101291.97;4918742;28;45558;-89
2021/09/17 07:23:59;;;;;;;;;27.75;24.50;;;;;17.85;65.97;101304.75;4903103;29;45320;-87
2021/09/17 07:26:25;;;;;;;;;29.75;29.25;;;;;17.80;65.86;101279.13;4919852;28;45397;-87
2021/09/17 07:28:50;;;;;;;;;28.75;26.50;;;;;17.84;65.93;101278.16;4922482;28;45798;-86
2021/09/17 07:31:16;;;;;;;;;28.50;27.00;;;;;17.90;65.76;101285.97;4905204;28;45208;-84
2021/09/17 07:33:41;;;;;;;;;30.50;29.00;;;;;18.04;65.51;101298.94;4904944;28;44829;-85
2021/09/17 07:36:07;;;;;;;;;34.25;30.50;;;;;18.01;65.22;101285.69;4905352;28;45896;-85
2021/09/17 07:38:32;;;;;;;;;31.50;28.25;;;;;18.05;65.15;101287.38;4922169;28;46410;-85
2021/09/17 07:40:58;;;;;;;;;29.75;28.75;;;;;18.20;65.25;101304.75;4909604;28;45469;-86
2021/09/17 07:43:23;;;;;;;;;32.75;30.25;;;;;18.19;64.72;101295.88;4926419;28;45436;-85
2021/09/17 07:45:49;;;;;;;;;32.75;28.25;;;;;18.25;65.09;101295.72;4922679;28;45424;-85
2021/09/17 07:48:14;;;;;;;;;27.75;27.25;;;;;18.31;64.73;101297.38;4922632;28;46259;-88
2021/09/17 07:50:40;;;;;;;;;33.25;28.75;;;;;18.40;64.86;101301.56;4893327;28;45455;-85
2021/09/17 07:53:06;;;;;;;;;39.25;33.50;;;;;18.43;65.00;101304.16;4922839;28;45366;-86
2021/09/17 07:55:34;;;;;;;;;29.25;27.75;;;;;18.48;64.82;101294.22;4905117;28;45302;-85
2021/09/17 07:58:01;;;;;;;;;36.75;31.25;;;;;18.55;64.36;101295.81;4922328;28;46369;-86
2021/09/17 08:00:27;;;;;;;;;35.50;32.00;;;;;18.68;64.31;101315.88;4892817;28;45261;-86
2021/09/17 08:02:52;;;;;;;;;34.25;31.75;;;;;18.70;64.09;101310.50;4909110;28;45280;-86
2021/09/17 08:05:17;;;;;;;;;29.75;27.25;;;;;18.82;64.16;101311.97;4922626;28;45556;-85
2021/09/17 08:07:43;;;;;;;;;30.25;29.50;;;;;18.86;63.97;101305.63;4905648;28;46573;-86
2021/09/17 08:10:09;;;;;;;;;35.50;31.25;;;;;18.91;63.88;101293.03;4922161;28;45542;-86
2021/09/17 08:12:34;;;;;;;;;27.25;26.75;;;;;18.98;63.63;101293.72;4905076;28;45320;-86
2021/09/17 08:15:00;;;;;;;;;37.50;33.75;;;;;19.09;63.31;101304.97;4925007;28;45372;-87
2021/09/17 08:17:25;;;;;;;;;37.25;32.50;;;;;19.09;63.05;101297.81;4929316;28;45787;-86
2021/09/17 08:19:51;;;;;;;;;29.75;27.25;;;;;19.19;63.00;101301.06;4908279;28;45377;-87
2021/09/17 08:22:16;;;;;;;;;16.75;16.75;;;;;19.26;61.85;101304.44;4908153;28;45336;-86
2021/09/17 08:24:42;;;;;;;;;20.25;17.75;;;;;19.34;61.31;101313.09;4908757;28;45351;-86
2021/09/17 08:27:07;;;;;;;;;15.00;15.00;;;;;19.44;60.71;101311.88;4924998;28;45559;-87
2021/09/17 08:29:33;;;;;;;;;17.00;16.25;;;;;19.48;60.66;101309.97;4907938;28;45520;-86
2021/09/17 08:31:59;;;;;;;;;16.00;15.00;;;;;19.56;60.62;101299.91;4908107;28;45252;-86
2021/09/17 08:34:25;;;;;;;;;16.75;13.25;;;;;19.65;60.28;101307.66;4907489;28;45238;-85
2021/09/17 08:36:50;;;;;;;;;17.75;16.00;;;;;19.68;60.04;101299.56;4907236;28;46748;-86
2021/09/17 08:39:16;;;;;;;;;15.75;14.00;;;;;19.74;60.02;101290.47;4920037;28;45431;-84
2021/09/17 08:41:46;;;;;;;;;15.50;15.50;;;;;19.89;59.29;101314.03;4915971;28;45293;-83
2021/09/17 08:44:12;;;;;;;;;16.50;15.00;;;;;19.98;59.13;101315.50;4906688;28;45554;-85
2021/09/17 08:46:40;;;;;;;;;13.67;11.67;;;;;20.04;58.61;101299.25;4906678;28;47776;-85
2021/09/17 08:49:07;;;;;;;;;11.00;11.00;;;;;20.13;58.18;101303.41;4916830;28;45302;-85
2021/09/17 08:51:33;;;;;;;;;10.67;8.67;;;;;20.15;57.63;101294.41;4913543;28;45233;-84
2021/09/17 08:54:03;;;;;;;;;9.00;8.00;;;;;20.26;57.73;101307.41;4905732;28;45569;-85
2021/09/17 08:56:29;;;;;;;;;7.00;7.00;;;;;20.28;57.88;101301.06;4903590;28;47230;-86
2021/09/17 08:58:54;;;;;;;;;8.00;8.00;;;;;20.34;57.10;101293.75;4904116;29;45301;-86
2021/09/17 09:01:29;;;;;;;;;10.67;10.00;;;;;20.43;56.69;101299.66;4928430;28;45311;-86
2021/09/17 09:03:59;;;;;;;;;11.67;11.00;;;;;20.49;56.55;101295.88;4907296;28;45308;-86
2021/09/17 09:06:26;;;;;;;;;9.67;9.67;;;;;20.51;56.01;101302.06;4906408;28;46191;-86
2021/09/17 09:08:51;;;;;;;;;9.33;8.67;;;;;20.60;56.02;101296.41;4923564;28;45532;-86
2021/09/17 09:11:22;;;;;;;;;14.00;10.33;;;;;20.62;55.92;101294.56;4906666;28;45440;-86
2021/09/17 09:14:08;;;;;;;;;10.33;10.00;;;;;20.72;55.70;101292.41;4907409;28;45770;-87
2021/09/17 09:16:36;;;;;;;;;10.67;10.67;;;;;20.78;55.44;101286.81;4916932;28;45424;-86
2021/09/17 09:19:25;;;;;;;;;11.67;10.67;;;;;20.85;55.25;101287.44;4927933;28;45481;-85
2021/09/17 09:21:54;;;;;;;;;10.67;10.67;;;;;20.95;55.15;101293.34;4915279;28;45157;-84
2021/09/17 09:24:22;;;;;;;;;13.00;10.33;;;;;20.93;54.68;101280.03;4915381;28;45428;-86
2021/09/17 09:27:07;;;;;;;;;14.00;13.67;;;;;21.02;54.63;101287.69;4922212;28;48250;-86
2021/09/17 09:29:33;;;;;;;;;11.67;10.67;;;;;21.04;54.63;101275.13;4911018;28;45445;-85
2021/09/17 09:31:59;;;;;;;;;10.33;9.00;;;;;21.16;53.96;101287.16;4916923;28;45453;-85
2021/09/17 09:34:50;;;;;;;;;12.33;11.00;;;;;21.26;54.26;101282.31;4922667;28;45504;-85
2021/09/17 09:37:20;;;;;;;;;11.00;11.00;;;;;21.33;53.93;101287.38;4927546;28;45492;-85
2021/09/17 09:39:52;;;;;;;;;11.67;10.33;;;;;21.40;53.79;101281.81;4926235;28;45283;-85
2021/09/17 09:42:19;;;;;;;;;9.00;9.00;;;;;21.43;53.53;101269.16;4932930;28;45479;-88
2021/09/17 09:45:07;;;;;;;;;8.67;7.67;;;;;21.56;53.82;101278.44;4924435;28;45386;-86
2021/09/17 09:47:36;;;;;;;;;11.33;9.00;;;;;21.63;52.94;101276.38;4923871;28;45453;-88
2021/09/17 09:50:16;;;;;;;;;10.67;10.00;;;;;21.62;52.36;101260.34;4911271;28;45335;-88
2021/09/17 09:52:44;;;;;;;;;10.00;10.00;;;;;21.68;52.45;101269.03;4920089;28;45336;-90
2021/09/17 09:55:10;;;;;;;;;14.67;13.00;;;;;21.71;52.28;101268.91;4920881;28;45514;-84
2021/09/17 09:57:39;;;;;;;;;10.67;10.00;;;;;21.75;52.69;101272.31;4924416;28;45376;-87
2021/09/17 10:00:09;;;;;;;;;9.00;8.33;;;;;21.78;52.27;101269.50;4923435;28;45298;-88
2021/09/17 10:02:35;;;;;;;;;12.67;11.00;;;;;21.84;51.56;101269.25;4923153;28;45455;-87
2021/09/17 10:05:06;;;;;;;;;11.33;11.33;;;;;21.94;51.67;101269.72;4924719;28;45339;-86
2021/09/17 10:07:35;;;;;;;;;10.33;10.33;;;;;21.96;50.46;101254.44;4926841;28;45428;-85
2021/09/17 10:10:07;;;;;;;;;10.33;9.67;;;;;22.06;51.04;101269.22;4925613;28;45466;-83
2021/09/17 10:12:32;;;;;;;;;10.67;7.00;;;;;22.15;50.98;101266.09;4933901;28;45294;-87
2021/09/17 10:14:59;;;;;;;;;10.00;10.00;;;;;22.19;50.49;101261.53;4935568;28;44848;-84
2021/09/17 10:18:33;;;;;;;;;;;;;;;;;;;;;
2021/09/17 10:26:09;;;;;;;;;;;;;;;;;;;;;
2021/09/17 10:32:03;;;;;;;;;;;;;;;;;;;;;
2021/09/17 10:34:38;;;;;;;;;7.00;6.00;;;;;22.81;48.47;101240.84;4734156;29;71078;-89
2021/09/17 10:37:04;;;;;;;;;6.67;6.67;;;;;22.86;48.58;101250.41;4775273;29;45717;-87
2021/09/17 10:39:35;;;;;;;;;7.00;7.00;;;;;22.92;48.23;101243.03;4894309;28;45606;-89
2021/09/17 10:42:17;;;;;;;;;5.67;5.67;;;;;23.13;47.82;101247.41;4920319;28;46477;-89
2021/09/17 10:45:32;;;;;;;;;;;;;;;;;;;;;
2021/09/17 10:47:59;;;;;;;;;5.00;5.00;;;;;23.21;45.56;101252.41;4919556;28;45637;-89
2021/09/17 10:50:48;;;;;;;;;6.33;6.33;;;;;23.10;46.92;101244.88;4926881;28;45312;-89
2021/09/17 10:53:38;;;;;;;;;5.00;5.00;;;;;23.09;45.73;101244.00;4926209;28;47131;-87
2021/09/17 10:57:06;;;;;;;;;;;;;;;;;;;;;
2021/09/17 11:00:28;;;;;;;;;;;;;;;;;;;;;
2021/09/17 11:10:32;;;;;;;;;;;;;;;;;;;;;
2021/09/17 11:13:37;;;;;;;;;;;;;;;;;;;;;
2021/09/17 11:16:27;;;;;;;;;2.33;2.33;;;;;24.13;43.44;101228.97;4927776;28;71304;-88
2021/09/17 11:19:31;;;;;;;;;;;;;;;;;;;;;
2021/09/17 11:23:21;;;;;;;;;8.33;6.33;;;;;24.52;43.47;101223.31;4942506;28;72404;-89
2021/09/17 11:44:13;;;;;;;;;7.67;6.33;;;;;25.59;40.82;101202.03;4708184;30;44903;-89
2021/09/17 11:47:08;;;;;;;;;7.00;5.00;;;;;25.78;41.04;101199.09;4693602;30;47296;-87
2021/09/17 11:56:09;;;;;;;;;6.00;6.00;;;;;25.84;39.10;101188.81;4826557;29;45389;-81
2021/09/17 12:05:59;;;;;;;;;5.33;5.33;;;;;25.80;39.55;101197.19;4815522;29;45611;-85
2021/09/17 12:08:25;;;;;;;;;7.00;7.00;;;;;25.93;40.11;101192.81;4867618;29;45299;-84
2021/09/17 16:47:55;;;;;;;;;3.00;3.00;;;;;29.82;31.17;101015.72;5813836;23;47164;-83
2021/09/17 17:14:50;;;;;;;;;4.67;4.67;;;;;26.97;34.35;101010.59;4912593;28;45582;-83
2021/09/17 18:38:42;;;;;;;;;;;;;;;;;;;;;
2021/09/17 18:41:38;;;;;;;;;8.33;6.00;;;;;23.06;41.33;101048.06;4905269;28;71305;-81
2021/09/17 18:50:36;;;;;;;;;8.00;8.00;;;;;22.81;42.15;101050.22;4931501;28;45633;-83
2021/09/17 18:54:09;;;;;;;;;;;;;;;;;;;;;
2021/09/17 19:00:54;;;;;;;;;;;;;;;;;;;;;
2021/09/17 19:03:58;;;;;;;;;9.00;9.00;;;;;22.57;43.06;101058.53;4869900;29;74574;-83
2021/09/17 19:06:38;;;;;;;;;7.67;7.67;;;;;22.50;43.24;101059.75;4851492;29;45571;-82
2021/09/17 19:09:10;;;;;;;;;8.00;8.00;;;;;22.47;43.57;101062.59;4858462;29;45796;-82
2021/09/17 19:19:05;;;;;;;;;11.50;11.25;;;;;22.34;44.00;101072.19;4895962;28;45521;-83
2021/09/17 19:21:59;;;;;;;;;10.50;10.50;;;;;22.33;44.00;101075.81;4891168;28;45725;-83
2021/09/17 19:24:31;;;;;;;;;9.75;9.75;;;;;22.28;43.90;101078.72;4911939;28;45706;-81
2021/09/17 19:39:02;;;;;;;;;14.50;14.25;;;;;22.14;44.47;101083.81;4805120;29;45512;-82
2021/09/17 19:42:23;;;;;;;;;20.25;17.75;;;;;22.17;44.79;101099.78;4861442;29;47020;-82
2021/09/17 19:44:51;;;;;;;;;10.75;10.75;;;;;22.15;44.82;101098.97;4840088;29;45675;-81
2021/09/17 19:47:17;;;;;;;;;23.00;21.75;;;;;22.14;45.04;101098.09;4859446;28;45542;-81
2021/09/17 19:49:43;;;;;;;;;17.00;13.00;;;;;22.12;45.10;101099.97;4959484;28;45497;-81
2021/09/17 19:52:18;;;;;;;;;;;;;;;;;;;;;
2021/09/17 20:04:49;;;;;;;;;25.00;21.50;;;;;22.01;45.65;101100.47;4866637;29;45642;-82
2021/09/17 20:15:25;;;;;;;;;;;;;;;;;;;;;
2021/09/17 20:18:37;;;;;;;;;22.00;21.00;;;;;21.98;45.94;101108.66;4890787;29;75094;-81
2021/09/17 20:21:12;;;;;;;;;26.25;25.00;;;;;21.94;45.88;101107.03;4845350;29;45512;-81
2021/09/17 20:31:52;;;;;;;;;15.00;14.25;;;;;21.87;46.45;101107.41;4901251;28;45186;-83
2021/09/17 20:38:39;;;;;;;;;18.25;17.00;;;;;21.85;46.55;101103.94;4858525;28;45744;-83
2021/09/17 20:42:08;;;;;;;;;17.25;15.75;;;;;21.80;46.84;101102.31;4884685;28;45723;-83
2021/09/17 20:45:35;;;;;;;;;;;;;;;;;;;;;
2021/09/17 20:54:45;;;;;;;;;15.00;13.75;;;;;21.63;47.09;101112.06;4903047;28;45687;-81
2021/09/17 20:58:44;;;;;;;;;;;;;;;;;;;;;
2021/09/17 21:01:13;;;;;;;;;17.25;16.00;;;;;21.55;47.04;101109.72;4876746;28;45922;-83
2021/09/17 21:04:37;;;;;;;;;13.50;12.50;;;;;21.49;47.36;101105.50;4881419;29;45922;-83
2021/09/17 21:07:16;;;;;;;;;13.25;13.25;;;;;21.52;47.29;101117.88;4863978;28;45724;-82
2021/09/17 21:14:02;;;;;;;;;12.75;12.50;;;;;21.42;47.95;101111.19;4801351;29;46005;-82
2021/09/17 21:17:08;;;;;;;;;16.25;15.75;;;;;21.39;48.06;101117.53;4836190;29;45534;-82
2021/09/17 21:19:51;;;;;;;;;21.25;18.75;;;;;21.36;47.99;101117.63;4792256;29;45459;-82
2021/09/17 21:22:59;;;;;;;;;;;;;;;;;;;;;
2021/09/17 21:43:09;;;;;;;;;;;;;;;;;;;;;
2021/09/17 22:23:04;;;;;;;;;;;;;;;;;;;;;
2021/09/17 22:25:38;;;;;;;;;20.25;20.00;;;;;20.74;50.99;101113.91;4849686;28;73872;-82
